Fremont, MI (49412)

12:33 PM EDT on August 30, 2014 (GMT -0400)
Fremont | Change Station
CLOSE
Current Station
Airport
Location: Fremont,
Elevation: 771 ft
Nearby Weather Stations

Elev 771 ft 43.44 °N, 85.99 °W | Updated 19 minutes ago

Overcast
Overcast
76 °F
Feels Like 76 °F
N
14
Wind Variable Wind from SSW
Gusts 17 mph

Today
High -- | Low -- °F
--% Chance of Precip.
Yesterday
High -- | Low -- °F
Precip. -- in
7:05 AM 8:22 PM
Waxing Crescent, 23% visible
Pressure 29.84 in
Visibility 7.0 miles
Clouds Mostly Cloudy 1600 ft
Mostly Cloudy 2500 ft
Overcast 4800 ft
Dew Point 70 °F
Humidity 81%
Rainfall 0.00 in
Snow Depth Not available.
UV 2 out of 12
Pollen 5.30 out of 12
Ozone Good
PM2.5 Moderate
Flu Activity Not available.
METAR KFFX 301614Z AUTO 21012G15KT 7SM BKN016 BKN025 OVC048 25/21 A2984 RMK AO2 T02460211

More Conditions Fewer Conditions

Pressure 29.84 in
Visibility 7.0 miles
Clouds Mostly Cloudy 1600 ft
Mostly Cloudy 2500 ft
Overcast 4800 ft
Dew Point 70 °F
Humidity 81%
Rainfall 0.00 in
Snow Depth Not available.
UV 2 out of 12
Pollen 5.30 out of 12
Ozone Good
PM2.5 Moderate
Flu Activity Not available.
METAR KFFX 301614Z AUTO 21012G15KT 7SM BKN016 BKN025 OVC048 25/21 A2984 RMK AO2 T02460211

More Conditions Fewer Conditions

10-Day Weather Forecast

Almanac

Astronomy

Aug. 30, 2014 Rise Set
Actual Time 7:05 AM EDT 8:22 PM EDT
Civil Twilight 6:35 AM EDT 8:52 PM EDT
Nautical Twilight 6:00 AM EDT 9:27 PM EDT
Astronomical Twilight 5:22 AM EDT 10:04 PM EDT
Moon 12:01 PM EDT 10:46 PM EDT
Length of Visible Light 14h 16m
Length of Day
13h 17m
Tomorrow will be 2m 50s shorter.
Waxing Crescent, 23% of the Moon is Illuminated
Today
Waxing Crescent
Sep 2
First Quarter
Sep 8
Full
Sep 15
Last Quarter
Sep 24
New

Today's Extremes

State Highs State Lows

Community

WunderPhotos

Upload Photos

1,748,557 photos uploaded!

WunderBlogs® & News

Nearby

Air Quality

  Air Quality AQ Index Pollutant
Yesterday Good
OZONE
Yesterday Good
PM2.5
Current Moderate
PM2.5
Current Good
OZONE
Saturday Good
OZONE
Saturday Good
PM2.5
Sunday Good
OZONE
Sunday Good
PM2.5
Monday Good
OZONE
Monday Good
PM2.5
Tuesday Good
OZONE
Tuesday Good
PM2.5

Snow Depth

Station Depth Elevation
No new snow has been reported.

Earthquake Activity

City Distance Mag. Time & Date
No recent earthquake activity has been reported nearby.
Minimum magnitude displayed is 2.5.

Coastal Water Temperatures

Place Temperature
Holland, MI 70.0 °F

Nearby Weather Stations